Time;durP1;ratioP1;P1;durP2;ratioP2;P2;SDS_P1;SDS_P2;PMS_P1;PMS_P2;Temp;Humidity;BMP_temperature;BMP_pressure;BME280_temperature;BME280_humidity;BME280_pressure;Samples;Min_cycle;Max_cycle;Signal;HPM_P1;HPM_P2
2022/03/24 00:02:10;;;;;;;7.30;3.80;;;8.50;34.50;;;;;;2263440;56;21056;-63
2022/03/24 00:04:37;;;;;;;6.53;3.70;;;8.50;34.60;;;;;;2254341;55;21058;-63
2022/03/24 00:07:04;;;;;;;8.05;4.07;;;8.40;34.60;;;;;;2233261;56;20974;-63
2022/03/24 00:09:30;;;;;;;7.90;4.15;;;8.40;34.60;;;;;;2248369;55;20983;-63
2022/03/24 00:11:58;;;;;;;6.80;3.50;;;8.30;34.60;;;;;;2249097;56;21007;-63
2022/03/24 00:14:24;;;;;;;5.62;3.47;;;8.30;34.70;;;;;;2257244;56;20956;-63
2022/03/24 00:16:50;;;;;;;6.22;3.70;;;8.30;34.80;;;;;;2345467;55;21439;-64
2022/03/24 00:19:17;;;;;;;7.55;3.58;;;8.20;34.80;;;;;;2263829;56;21032;-63
2022/03/24 00:21:44;;;;;;;6.95;3.80;;;8.20;34.90;;;;;;2257411;56;21001;-63
2022/03/24 00:24:11;;;;;;;6.93;3.92;;;8.20;35.00;;;;;;2257829;56;21045;-63
2022/03/24 00:26:37;;;;;;;6.50;3.87;;;8.10;35.10;;;;;;2249338;55;21020;-62
2022/03/24 00:29:04;;;;;;;5.80;3.50;;;8.10;35.10;;;;;;2472974;55;21041;-63
2022/03/24 00:34:58;;;;;;;6.97;3.37;;;8.00;35.60;;;;;;2485780;55;20960;-63
2022/03/24 00:37:25;;;;;;;6.72;3.80;;;8.00;35.20;;;;;;2257578;57;20952;-63
2022/03/24 00:39:51;;;;;;;6.37;3.35;;;8.00;35.50;;;;;;2256435;56;20976;-63
2022/03/24 00:42:21;;;;;;;6.70;3.97;;;8.00;35.60;;;;;;2239444;56;20969;-63
2022/03/24 00:44:47;;;;;;;8.15;4.00;;;7.90;35.60;;;;;;2254462;56;20961;-63
2022/03/24 00:47:14;;;;;;;5.30;3.00;;;7.90;35.70;;;;;;2256796;56;20981;-63
2022/03/24 00:49:41;;;;;;;5.32;3.10;;;7.90;35.70;;;;;;2457474;55;21020;-63
2022/03/24 00:52:11;;;;;;;6.75;3.50;;;7.90;35.70;;;;;;2249914;55;21047;-62
2022/03/24 00:54:38;;;;;;;7.30;4.30;;;7.90;35.70;;;;;;2258852;56;20937;-63
2022/03/24 01:00:31;;;;;;;6.20;3.28;;;7.80;36.10;;;;;;2280746;55;21901;-63
2022/03/24 01:02:58;;;;;;;5.95;3.30;;;7.80;35.70;;;;;;2258056;56;21506;-63
2022/03/24 01:05:27;;;;;;;7.75;3.85;;;7.80;35.70;;;;;;2257932;56;21040;-63
2022/03/24 01:08:31;;;;;;;6.90;3.28;;;7.70;35.70;;;;;;2233354;56;21541;-63
2022/03/24 01:10:57;;;;;;;5.95;3.22;;;7.70;36.10;;;;;;2257207;56;21580;-63
2022/03/24 01:17:04;;;;;;;7.55;4.05;;;7.60;36.20;;;;;;2253531;56;21029;-63
2022/03/24 01:19:31;;;;;;;5.72;3.20;;;7.60;35.80;;;;;;2255875;55;20969;-63
2022/03/24 01:21:57;;;;;;;7.93;3.62;;;7.60;35.80;;;;;;2257909;56;21000;-62
2022/03/24 01:24:23;;;;;;;6.00;3.72;;;7.50;35.90;;;;;;2451777;55;21101;-63
2022/03/24 01:26:49;;;;;;;5.78;3.33;;;7.50;36.00;;;;;;2257382;56;21476;-63
2022/03/24 01:29:16;;;;;;;6.12;3.47;;;7.50;36.10;;;;;;2257312;56;20949;-63
2022/03/24 01:31:42;;;;;;;6.03;3.50;;;7.40;36.00;;;;;;2255300;56;21458;-63
2022/03/24 01:34:09;;;;;;;6.93;3.92;;;7.40;36.10;;;;;;2485631;55;21029;-62
2022/03/24 01:36:35;;;;;;;7.00;3.65;;;7.40;36.20;;;;;;2256890;56;20952;-63
2022/03/24 01:39:02;;;;;;;6.20;3.37;;;7.30;36.20;;;;;;2258725;56;20937;-63
2022/03/24 01:41:28;;;;;;;6.40;2.97;;;7.30;36.20;;;;;;2258692;56;20952;-63
2022/03/24 01:43:55;;;;;;;5.62;3.70;;;7.30;36.30;;;;;;2241499;56;21621;-62
2022/03/24 01:46:22;;;;;;;6.75;3.58;;;7.30;36.30;;;;;;2464147;55;20926;-63
2022/03/24 01:48:49;;;;;;;6.10;3.72;;;7.20;36.30;;;;;;2258580;56;20960;-62
2022/03/24 01:51:15;;;;;;;5.95;3.30;;;7.20;36.40;;;;;;2258535;56;20953;-63
2022/03/24 01:53:41;;;;;;;5.72;3.00;;;7.20;36.50;;;;;;2258950;56;20952;-63
2022/03/24 01:56:08;;;;;;;6.93;3.47;;;7.10;36.40;;;;;;2432158;55;20976;-63
2022/03/24 01:58:34;;;;;;;7.05;3.78;;;7.10;36.50;;;;;;2257405;56;20955;-62
2022/03/24 02:01:25;;;;;;;7.28;4.07;;;7.10;36.60;;;;;;2257548;56;20997;-63
2022/03/24 02:03:53;;;;;;;8.38;4.07;;;7.00;36.60;;;;;;2259420;56;21099;-62
2022/03/24 02:06:19;;;;;;;7.70;4.32;;;7.00;36.70;;;;;;2258130;55;20949;-63
2022/03/24 02:08:46;;;;;;;7.55;4.07;;;7.00;36.80;;;;;;2257471;55;21473;-63
2022/03/24 02:11:12;;;;;;;6.95;3.72;;;6.90;36.70;;;;;;2256820;55;21430;-63
2022/03/24 02:13:38;;;;;;;5.55;3.17;;;6.90;36.70;;;;;;2256399;56;21088;-63
2022/03/24 02:16:11;;;;;;;6.87;3.65;;;6.90;36.80;;;;;;2261435;55;21567;-63
2022/03/24 02:18:38;;;;;;;8.30;4.15;;;6.90;37.00;;;;;;2257554;56;21144;-63
2022/03/24 02:21:04;;;;;;;9.73;4.45;;;6.90;36.90;;;;;;2454062;55;21537;-62
2022/03/24 02:23:30;;;;;;;11.15;4.78;;;6.80;36.90;;;;;;2395674;55;20974;-63
2022/03/24 02:25:57;;;;;;;10.68;4.40;;;6.80;37.00;;;;;;2466978;55;21038;-63
2022/03/24 02:28:23;;;;;;;10.98;5.20;;;6.80;37.10;;;;;;2250091;56;20979;-62
2022/03/24 02:30:50;;;;;;;13.75;5.90;;;6.70;36.90;;;;;;2269631;56;20984;-62
2022/03/24 02:33:22;;;;;;;15.52;6.32;;;6.70;37.00;;;;;;2339087;55;20952;-63
2022/03/24 02:35:50;;;;;;;17.25;6.57;;;6.70;37.20;;;;;;2258693;57;20978;-63
2022/03/24 02:38:19;;;;;;;14.95;5.75;;;6.70;37.10;;;;;;2243775;56;20968;-63
2022/03/24 02:40:49;;;;;;;14.48;5.25;;;6.70;37.10;;;;;;2257450;56;20976;-63
2022/03/24 02:43:18;;;;;;;8.68;4.37;;;6.60;37.10;;;;;;2260242;56;21009;-63
2022/03/24 02:45:46;;;;;;;11.10;4.90;;;6.60;37.20;;;;;;2477858;55;21394;-62
2022/03/24 02:49:02;;;;;;;18.33;6.87;;;6.60;37.20;;;;;;2252288;56;20969;-63
2022/03/24 02:51:32;;;;;;;47.10;12.80;;;6.50;37.60;;;;;;2256656;56;20996;-63
2022/03/24 02:53:58;;;;;;;50.85;13.45;;;6.50;37.30;;;;;;2257054;56;20971;-63
2022/03/24 02:56:24;;;;;;;46.30;14.27;;;6.50;37.30;;;;;;2254726;56;20957;-62
2022/03/24 02:58:50;;;;;;;44.42;13.38;;;6.40;37.30;;;;;;2257265;56;20976;-63
2022/03/24 03:01:20;;;;;;;46.90;14.68;;;6.40;37.50;;;;;;2257343;57;20980;-62
2022/03/24 03:03:46;;;;;;;35.72;11.43;;;6.40;37.60;;;;;;2256700;56;21012;-63
2022/03/24 03:06:13;;;;;;;30.00;10.85;;;6.40;37.60;;;;;;2257176;56;20972;-62
2022/03/24 03:08:39;;;;;;;27.08;10.00;;;6.40;37.60;;;;;;2256958;56;20940;-63
2022/03/24 03:11:05;;;;;;;27.50;9.00;;;6.30;37.60;;;;;;2254283;56;20985;-63
2022/03/24 03:13:34;;;;;;;21.42;8.05;;;6.30;37.70;;;;;;2255462;56;21031;-63
2022/03/24 03:16:01;;;;;;;13.77;6.50;;;6.30;37.80;;;;;;2241688;56;21002;-62
2022/03/24 03:18:27;;;;;;;13.40;5.18;;;6.30;37.70;;;;;;2271976;56;20965;-63
2022/03/24 03:20:53;;;;;;;12.48;5.15;;;6.30;37.80;;;;;;2248112;56;20965;-63
2022/03/24 03:23:20;;;;;;;9.18;4.53;;;6.30;37.90;;;;;;2485282;55;21044;-63
2022/03/24 03:25:47;;;;;;;9.02;4.25;;;6.30;37.90;;;;;;2257471;56;21673;-63
2022/03/24 03:28:13;;;;;;;8.18;3.80;;;6.20;37.90;;;;;;2257542;56;21472;-62
2022/03/24 03:30:40;;;;;;;8.63;4.47;;;6.20;37.90;;;;;;2257595;56;21007;-63
2022/03/24 03:33:07;;;;;;;7.82;3.80;;;6.20;38.00;;;;;;2284199;55;20929;-63
2022/03/24 03:35:34;;;;;;;7.20;3.72;;;6.20;38.00;;;;;;2235252;56;21502;-63
2022/03/24 03:38:00;;;;;;;7.57;3.85;;;6.20;38.00;;;;;;2256209;56;21523;-62
2022/03/24 03:40:26;;;;;;;6.70;3.78;;;6.10;38.00;;;;;;2251082;56;21465;-63
2022/03/24 03:42:53;;;;;;;7.87;4.15;;;6.10;38.10;;;;;;2256266;56;20984;-63
2022/03/24 03:45:19;;;;;;;8.52;4.03;;;6.10;38.20;;;;;;2256445;57;21740;-62
2022/03/24 03:47:45;;;;;;;9.02;4.32;;;6.10;38.20;;;;;;2257485;56;20962;-63
2022/03/24 03:53:40;;;;;;;8.10;4.15;;;6.00;38.60;;;;;;2483866;55;21737;-63
2022/03/24 03:59:34;;;;;;;9.35;4.47;;;6.00;38.70;;;;;;2474734;55;20980;-63
2022/03/24 04:02:00;;;;;;;7.28;3.92;;;5.90;38.10;;;;;;2403659;55;21422;-63
2022/03/24 04:04:27;;;;;;;7.87;3.90;;;5.90;38.30;;;;;;2483811;55;20953;-64
2022/03/24 04:10:21;;;;;;;7.28;3.80;;;5.90;38.70;;;;;;2335865;55;21022;-63
2022/03/24 04:12:49;;;;;;;8.10;4.05;;;5.90;38.30;;;;;;2288071;56;21076;-63
2022/03/24 04:15:16;;;;;;;8.05;4.15;;;5.80;38.40;;;;;;2337175;55;20976;-62
2022/03/24 04:17:57;;;;;;;8.20;4.00;;;5.80;38.40;;;;;;2387899;55;21026;-62
2022/03/24 04:20:23;;;;;;;8.73;4.53;;;5.80;38.70;;;;;;2258379;56;21446;-62
2022/03/24 04:22:50;;;;;;;7.30;4.22;;;5.80;38.50;;;;;;2257862;57;21014;-63
2022/03/24 04:25:20;;;;;;;7.65;3.90;;;5.70;38.50;;;;;;2257577;57;20981;-63
2022/03/24 04:27:59;;;;;;;10.35;4.60;;;5.70;38.60;;;;;;2251387;56;21571;-62
2022/03/24 04:30:26;;;;;;;7.43;3.90;;;5.70;38.90;;;;;;2479960;55;21051;-63
2022/03/24 04:32:53;;;;;;;7.32;4.05;;;5.70;38.60;;;;;;2257602;56;20937;-62
2022/03/24 04:35:20;;;;;;;6.90;3.35;;;5.60;38.60;;;;;;2243560;56;21044;-63
2022/03/24 04:37:46;;;;;;;7.15;3.62;;;5.60;38.60;;;;;;2310027;55;20949;-62
2022/03/24 04:40:13;;;;;;;8.73;3.97;;;5.60;38.60;;;;;;2255890;56;20965;-63
2022/03/24 04:42:39;;;;;;;8.60;3.97;;;5.50;38.60;;;;;;2261407;56;21007;-62
2022/03/24 04:45:09;;;;;;;9.82;4.15;;;5.50;38.60;;;;;;2257647;56;21068;-63
2022/03/24 04:47:36;;;;;;;9.05;3.90;;;5.50;38.80;;;;;;2251408;56;20984;-63
2022/03/24 04:50:03;;;;;;;7.82;3.85;;;5.50;38.80;;;;;;2292706;55;21016;-63
2022/03/24 04:53:05;;;;;;;7.70;3.40;;;5.40;38.70;;;;;;2257262;56;21024;-62
2022/03/24 04:55:50;;;;;;;7.18;3.55;;;5.40;39.00;;;;;;2257017;56;21054;-63
2022/03/24 04:58:23;;;;;;;9.35;3.85;;;5.40;39.00;;;;;;2257639;55;21024;-63
2022/03/24 05:00:59;;;;;;;8.77;4.57;;;5.40;38.90;;;;;;2257462;55;20977;-62
2022/03/24 05:03:52;;;;;;;8.30;4.43;;;5.30;39.10;;;;;;2255690;55;21016;-63
2022/03/24 05:06:19;;;;;;;8.15;4.18;;;5.30;39.20;;;;;;2258074;55;21442;-62
2022/03/24 05:08:45;;;;;;;7.57;4.15;;;5.30;38.90;;;;;;2257150;55;20957;-62
2022/03/24 05:11:11;;;;;;;10.05;4.45;;;5.30;39.00;;;;;;2256977;55;21518;-62
2022/03/24 05:13:40;;;;;;;8.75;4.03;;;5.20;39.00;;;;;;2252483;55;20977;-62
2022/03/24 05:16:06;;;;;;;8.00;4.18;;;5.20;39.00;;;;;;2261504;55;20946;-63
2022/03/24 05:18:38;;;;;;;7.03;3.97;;;5.20;39.70;;;;;;2256975;55;20977;-63
2022/03/24 05:21:05;;;;;;;8.65;4.60;;;5.20;39.30;;;;;;2257392;55;20953;-63
2022/03/24 05:23:31;;;;;;;10.68;4.47;;;5.20;39.30;;;;;;2256896;55;20960;-63
2022/03/24 05:25:58;;;;;;;8.80;4.90;;;5.20;39.30;;;;;;2257521;56;20960;-63
2022/03/24 05:28:25;;;;;;;9.15;4.30;;;5.10;39.30;;;;;;2261091;55;21010;-63
2022/03/24 05:30:51;;;;;;;11.38;5.60;;;5.10;39.50;;;;;;2484999;55;20984;-62
2022/03/24 05:33:17;;;;;;;8.52;4.18;;;5.10;39.60;;;;;;2469829;55;21004;-63
2022/03/24 05:35:44;;;;;;;10.13;5.90;;;5.10;39.70;;;;;;2257366;55;20952;-63
2022/03/24 05:38:10;;;;;;;9.63;5.12;;;5.10;40.40;;;;;;2257223;56;21069;-62
2022/03/24 05:40:36;;;;;;;10.30;5.18;;;5.10;39.90;;;;;;2256939;56;20990;-63
2022/03/24 05:43:03;;;;;;;9.95;5.32;;;5.10;39.90;;;;;;2257190;56;20948;-63
2022/03/24 05:45:30;;;;;;;9.30;4.82;;;5.10;39.90;;;;;;2257327;56;21033;-62
2022/03/24 05:48:00;;;;;;;10.40;4.57;;;5.10;39.90;;;;;;2257988;55;21788;-63
2022/03/24 05:50:31;;;;;;;10.68;5.03;;;5.10;40.00;;;;;;2257053;55;20953;-63
2022/03/24 05:52:58;;;;;;;8.57;4.43;;;5.10;39.90;;;;;;2484485;55;21024;-63
2022/03/24 05:55:24;;;;;;;11.38;5.97;;;5.10;40.00;;;;;;2260976;55;20945;-62
2022/03/24 05:57:50;;;;;;;9.70;5.22;;;5.10;40.00;;;;;;2250119;55;21067;-62
2022/03/24 06:00:17;;;;;;;9.27;5.30;;;5.20;40.10;;;;;;2252668;56;21011;-62
2022/03/24 06:02:43;;;;;;;11.80;6.10;;;5.20;40.20;;;;;;2450953;55;21028;-63
2022/03/24 06:05:12;;;;;;;11.48;4.78;;;5.20;40.20;;;;;;2257220;56;20960;-62
2022/03/24 06:07:39;;;;;;;12.23;5.82;;;5.20;40.30;;;;;;2232177;57;21469;-63
2022/03/24 06:10:14;;;;;;;13.45;4.85;;;5.20;40.40;;;;;;2257497;56;20948;-62
2022/03/24 06:12:40;;;;;;;10.32;5.53;;;5.20;40.50;;;;;;2232014;57;20969;-62
2022/03/24 06:15:08;;;;;;;10.25;5.70;;;5.30;40.40;;;;;;2255972;56;20944;-62
2022/03/24 06:17:35;;;;;;;10.55;5.90;;;5.30;40.50;;;;;;2256857;57;20961;-62
2022/03/24 06:20:02;;;;;;;10.38;4.78;;;5.30;40.60;;;;;;2252201;56;20990;-63
2022/03/24 06:22:28;;;;;;;9.10;4.75;;;5.30;40.60;;;;;;2470421;55;21491;-63
2022/03/24 06:24:56;;;;;;;8.77;4.85;;;5.30;40.60;;;;;;2235679;56;20962;-63
2022/03/24 06:27:22;;;;;;;10.10;5.55;;;5.40;40.70;;;;;;2240726;56;21057;-62
2022/03/24 06:29:48;;;;;;;10.82;5.07;;;5.40;40.70;;;;;;2254385;56;21474;-62
2022/03/24 06:32:15;;;;;;;9.10;4.82;;;5.40;40.70;;;;;;2247640;56;21067;-63
2022/03/24 06:34:42;;;;;;;8.27;4.65;;;5.40;40.80;;;;;;2242159;55;21023;-62
2022/03/24 06:37:08;;;;;;;10.43;5.97;;;5.50;41.00;;;;;;2503033;55;20953;-63
2022/03/24 06:39:34;;;;;;;10.77;5.75;;;5.50;41.00;;;;;;2264360;56;20941;-63
2022/03/24 06:42:02;;;;;;;9.70;5.60;;;5.60;41.30;;;;;;2470404;55;20972;-63
2022/03/24 06:44:29;;;;;;;10.27;5.93;;;5.70;41.50;;;;;;2241365;56;20940;-62
2022/03/24 06:46:56;;;;;;;9.80;5.30;;;5.80;41.50;;;;;;2233720;57;21005;-63
2022/03/24 06:49:22;;;;;;;8.88;5.28;;;5.80;41.60;;;;;;2259042;56;20948;-62
2022/03/24 06:51:49;;;;;;;9.98;5.55;;;5.90;41.70;;;;;;2259591;56;20961;-63
2022/03/24 06:54:15;;;;;;;11.52;5.80;;;6.00;41.80;;;;;;2486062;55;20984;-63
2022/03/24 06:56:41;;;;;;;8.57;5.12;;;6.10;41.90;;;;;;2232648;56;21019;-62
2022/03/24 06:59:10;;;;;;;9.50;5.22;;;6.20;42.10;;;;;;2255677;57;20964;-63
2022/03/24 07:01:39;;;;;;;9.43;5.43;;;6.30;42.20;;;;;;2257678;56;20969;-63
2022/03/24 07:04:06;;;;;;;9.27;5.82;;;6.40;42.20;;;;;;2258982;56;20993;-63
2022/03/24 07:06:32;;;;;;;8.65;5.28;;;6.50;42.30;;;;;;2257879;56;20965;-63
2022/03/24 07:08:59;;;;;;;9.02;5.05;;;6.70;42.40;;;;;;2254037;57;21005;-64
2022/03/24 07:11:25;;;;;;;9.20;5.50;;;6.80;42.40;;;;;;2258657;57;21545;-63
2022/03/24 07:13:51;;;;;;;8.55;5.10;;;6.90;42.40;;;;;;2336883;55;21462;-63
2022/03/24 07:16:17;;;;;;;9.88;5.05;;;7.00;42.40;;;;;;2262528;56;21556;-63
2022/03/24 07:18:45;;;;;;;7.95;5.22;;;7.10;42.50;;;;;;2316797;55;20973;-63
2022/03/24 07:21:11;;;;;;;9.65;5.18;;;7.20;42.50;;;;;;2239324;56;20948;-63
2022/03/24 07:23:37;;;;;;;9.60;5.93;;;7.40;42.60;;;;;;2253307;55;21067;-63
2022/03/24 07:26:07;;;;;;;11.88;6.12;;;7.50;42.70;;;;;;2263802;55;21009;-63
2022/03/24 07:28:33;;;;;;;10.23;5.78;;;7.60;42.80;;;;;;2257866;56;21752;-63
2022/03/24 07:31:11;;;;;;;13.73;6.97;;;7.80;42.80;;;;;;2258414;56;20957;-64
2022/03/24 07:33:37;;;;;;;12.55;6.97;;;7.90;43.00;;;;;;2257672;55;21296;-63
2022/03/24 07:36:04;;;;;;;14.18;7.28;;;8.10;42.90;;;;;;2255522;55;21013;-64
2022/03/24 07:38:31;;;;;;;11.10;6.80;;;8.20;42.80;;;;;;2267908;55;21505;-63
2022/03/24 07:40:58;;;;;;;12.15;6.45;;;8.40;42.90;;;;;;2247592;56;21012;-63
2022/03/24 07:43:24;;;;;;;10.80;6.68;;;8.60;42.90;;;;;;2260736;56;20972;-63
2022/03/24 07:45:51;;;;;;;12.15;7.18;;;8.70;42.80;;;;;;2252337;56;21107;-64
2022/03/24 07:48:18;;;;;;;12.68;7.68;;;8.90;42.80;;;;;;2238790;56;20972;-63
2022/03/24 07:50:46;;;;;;;13.40;8.00;;;9.00;42.80;;;;;;2257883;56;21438;-63
2022/03/24 07:54:02;;;;;;;15.02;7.43;;;9.20;42.90;;;;;;2256900;56;21013;-64
2022/03/24 07:56:29;;;;;;;13.65;6.55;;;9.40;43.10;;;;;;2243965;56;20992;-64
2022/03/24 07:58:57;;;;;;;12.07;7.00;;;9.60;42.90;;;;;;2329013;55;21663;-64
2022/03/24 08:01:38;;;;;;;12.80;7.35;;;9.70;43.00;;;;;;2265073;56;21012;-64
2022/03/24 08:04:06;;;;;;;11.60;6.73;;;10.00;42.40;;;;;;2259567;56;21100;-64
2022/03/24 08:06:33;;;;;;;11.07;6.87;;;10.10;42.50;;;;;;2346235;55;20949;-64
2022/03/24 08:09:00;;;;;;;18.05;7.60;;;10.40;43.00;;;;;;2233956;57;20969;-64
2022/03/24 08:11:27;;;;;;;10.23;6.75;;;10.70;43.50;;;;;;2261423;56;21096;-64
2022/03/24 08:13:55;;;;;;;10.82;6.62;;;11.10;44.10;;;;;;2261244;56;21049;-64
2022/03/24 08:16:24;;;;;;;12.40;7.43;;;11.50;44.30;;;;;;2255613;56;21509;-64
2022/03/24 08:18:53;;;;;;;12.57;8.45;;;11.90;44.50;;;;;;2259408;56;20961;-64
2022/03/24 08:21:20;;;;;;;13.07;8.63;;;12.40;44.50;;;;;;2309340;55;21064;-64
2022/03/24 08:23:47;;;;;;;13.62;7.82;;;12.90;44.50;;;;;;2258995;55;21052;-64
2022/03/24 08:26:14;;;;;;;10.57;6.95;;;13.40;44.60;;;;;;2263316;55;21484;-67
2022/03/24 08:28:57;;;;;;;12.02;7.62;;;13.90;44.60;;;;;;2257632;55;20941;-67
2022/03/24 08:31:24;;;;;;;9.50;6.03;;;14.40;44.30;;;;;;2261541;56;21109;-64
2022/03/24 08:33:51;;;;;;;13.07;7.62;;;14.90;44.30;;;;;;2258385;55;20984;-64
2022/03/24 08:36:38;;;;;;;14.68;8.52;;;15.40;43.70;;;;;;2256453;55;20996;-65
2022/03/24 08:39:11;;;;;;;10.40;7.12;;;15.90;42.80;;;;;;2254804;55;21014;-65
2022/03/24 08:41:38;;;;;;;11.30;7.25;;;16.30;43.40;;;;;;2227996;56;20960;-66
2022/03/24 08:44:13;;;;;;;12.65;7.72;;;16.70;43.30;;;;;;2258265;56;20977;-65
2022/03/24 08:46:42;;;;;;;12.40;7.28;;;17.20;43.00;;;;;;2428631;55;21079;-67
2022/03/24 08:49:18;;;;;;;11.82;7.75;;;17.60;42.40;;;;;;2246810;57;21438;-65
2022/03/24 08:51:45;;;;;;;10.70;7.50;;;18.10;42.30;;;;;;2259224;56;22027;-65
2022/03/24 08:54:18;;;;;;;14.82;8.23;;;18.40;41.70;;;;;;2240798;56;21433;-68
2022/03/24 08:56:45;;;;;;;10.73;7.78;;;18.80;41.20;;;;;;2277564;55;20988;-65
2022/03/24 08:59:16;;;;;;;11.63;7.68;;;19.10;40.90;;;;;;2272521;56;21384;-67
2022/03/24 09:01:45;;;;;;;9.02;6.68;;;19.40;40.50;;;;;;2281816;56;21004;-65
2022/03/24 09:04:18;;;;;;;;;;;19.60;40.30;;;;;;2267273;56;21068;-66
2022/03/24 09:06:48;;;;;;;7.50;5.32;;;19.90;40.00;;;;;;2280407;55;20097;-65
2022/03/24 09:09:18;;;;;;;9.55;6.93;;;20.10;40.10;;;;;;2256207;56;21033;-65
2022/03/24 09:11:46;;;;;;;10.23;6.95;;;20.30;39.80;;;;;;2262003;56;21476;-65
2022/03/24 09:14:12;;;;;;;10.98;7.07;;;20.60;39.70;;;;;;2247900;56;21097;-66
2022/03/24 09:16:40;;;;;;;13.88;8.30;;;20.90;39.80;;;;;;2256805;56;21016;-68
2022/03/24 09:19:07;;;;;;;10.80;7.37;;;21.20;39.40;;;;;;2252982;55;20999;-65
2022/03/24 09:27:57;;;;;;;9.77;6.70;;;21.50;39.00;;;;;;2368484;55;21017;-65
2022/03/24 09:30:24;;;;;;;12.35;4.70;;;22.60;38.80;;;;;;2259607;56;20944;-65
2022/03/24 09:32:54;;;;;;;8.75;5.87;;;22.80;38.80;;;;;;2259716;56;20976;-67
2022/03/24 09:35:20;;;;;;;8.82;6.22;;;23.10;38.20;;;;;;2259288;57;21040;-66
2022/03/24 09:39:21;;;;;;;10.52;7.28;;;23.30;37.90;;;;;;2349078;55;20965;-67
2022/03/24 09:41:52;;;;;;;13.25;7.93;;;23.70;36.70;;;;;;2282036;55;21031;-68
2022/03/24 09:44:20;;;;;;;10.90;7.87;;;23.80;36.20;;;;;;2248046;56;21028;-66
2022/03/24 09:46:46;;;;;;;11.60;7.57;;;23.90;35.80;;;;;;2361376;55;20945;-65
2022/03/24 09:49:15;;;;;;;11.40;6.85;;;24.00;35.40;;;;;;2232122;56;21017;-65
2022/03/24 09:52:01;;;;;;;9.18;6.37;;;24.10;35.30;;;;;;2387794;55;21065;-66
2022/03/24 09:54:29;;;;;;;10.68;6.72;;;24.20;35.30;;;;;;2289023;55;21438;-66
2022/03/24 09:57:23;;;;;;;10.20;7.18;;;24.40;35.10;;;;;;2259218;56;20957;-67
2022/03/24 09:59:50;;;;;;;11.12;7.45;;;24.50;33.90;;;;;;2259738;56;20992;-66
2022/03/24 10:02:19;;;;;;;8.30;6.47;;;24.60;34.40;;;;;;2258053;56;21005;-68
2022/03/24 10:04:53;;;;;;;10.32;6.72;;;24.70;34.30;;;;;;2486979;55;21445;-66
2022/03/24 10:08:05;;;;;;;10.52;6.65;;;24.80;33.90;;;;;;2261986;56;21105;-66
2022/03/24 10:10:34;;;;;;;9.98;6.97;;;24.80;33.30;;;;;;2376432;55;20976;-68
2022/03/24 10:13:04;;;;;;;11.25;7.35;;;24.80;33.10;;;;;;2387095;55;21000;-68
2022/03/24 10:15:31;;;;;;;10.13;7.10;;;24.80;32.50;;;;;;2233387;57;20943;-67
2022/03/24 10:17:58;;;;;;;10.50;8.15;;;24.70;32.40;;;;;;2241775;56;20989;-67
2022/03/24 10:20:30;;;;;;;10.82;7.75;;;24.60;32.00;;;;;;2245300;56;21433;-66
2022/03/24 10:23:18;;;;;;;11.55;8.38;;;24.40;31.70;;;;;;2260196;56;20973;-66
2022/03/24 10:25:48;;;;;;;10.07;7.60;;;24.30;31.10;;;;;;2256196;56;21008;-66
2022/03/24 10:28:19;;;;;;;12.15;7.30;;;24.20;31.50;;;;;;2254043;56;21019;-68
2022/03/24 10:30:50;;;;;;;14.95;9.13;;;24.10;31.30;;;;;;2241016;56;21738;-65
2022/03/24 10:33:30;;;;;;;12.98;8.82;;;24.00;30.60;;;;;;2269249;55;21435;-66
2022/03/24 10:36:10;;;;;;;11.38;7.65;;;23.90;30.00;;;;;;2269088;55;21533;-67
2022/03/24 10:38:40;;;;;;;12.65;8.80;;;23.70;30.40;;;;;;2259834;55;20944;-68
2022/03/24 10:41:24;;;;;;;12.02;8.20;;;23.60;30.10;;;;;;2273187;56;20998;-66
2022/03/24 10:43:55;;;;;;;13.70;8.88;;;23.40;30.00;;;;;;2413813;55;21555;-66
2022/03/24 10:49:50;;;;;;;12.23;8.32;;;23.30;30.10;;;;;;2437967;55;21019;-66
2022/03/24 10:52:20;;;;;;;12.70;8.40;;;23.20;30.40;;;;;;2279061;56;20974;-66
2022/03/24 10:58:05;;;;;;;11.93;7.95;;;23.10;30.40;;;;;;2261890;56;21080;-66
2022/03/24 11:00:36;;;;;;;13.73;8.23;;;23.10;30.40;;;;;;2233298;56;21000;-66
2022/03/24 11:03:06;;;;;;;11.48;8.38;;;23.10;30.30;;;;;;2282619;56;21592;-69
2022/03/24 11:05:36;;;;;;;12.15;8.45;;;23.10;30.40;;;;;;2423196;56;21042;-67
2022/03/24 11:08:08;;;;;;;13.82;9.32;;;23.20;30.50;;;;;;2327770;55;20961;-68
2022/03/24 11:10:45;;;;;;;13.05;8.68;;;23.20;30.20;;;;;;2335775;55;21004;-68
2022/03/24 11:13:25;;;;;;;12.32;8.32;;;23.20;30.00;;;;;;2259897;56;21916;-68
2022/03/24 11:15:53;;;;;;;11.63;8.23;;;23.20;29.90;;;;;;2258870;56;20960;-66
2022/03/24 11:18:25;;;;;;;10.80;7.53;;;23.20;30.00;;;;;;2259505;56;21024;-67
2022/03/24 11:22:33;;;;;;;13.68;8.20;;;23.20;30.00;;;;;;2259956;56;21454;-67
2022/03/24 11:31:53;;;;;;;12.63;6.70;;;23.30;30.00;;;;;;2259698;56;20993;-66
2022/03/24 11:34:20;;;;;;;9.43;6.60;;;23.60;30.40;;;;;;2258284;56;20988;-68
2022/03/24 11:36:58;;;;;;;10.82;7.28;;;23.60;30.00;;;;;;2261159;55;21854;-68
2022/03/24 11:39:25;;;;;;;12.52;8.40;;;23.60;29.70;;;;;;2236761;57;21489;-66
2022/03/24 11:41:59;;;;;;;12.52;7.93;;;23.60;29.50;;;;;;2250966;56;20984;-67
2022/03/24 11:45:08;;;;;;;15.63;7.90;;;23.60;29.50;;;;;;2259149;55;21539;-66
2022/03/24 11:50:55;;;;;;;11.90;7.90;;;23.60;29.30;;;;;;2382683;55;20952;-68
2022/03/24 11:54:05;;;;;;;9.93;6.37;;;23.60;29.20;;;;;;2330582;55;21462;-66
2022/03/24 11:56:33;;;;;;;10.63;7.10;;;23.60;29.60;;;;;;2258709;57;21513;-66
2022/03/24 11:59:24;;;;;;;9.98;6.70;;;23.70;29.60;;;;;;2486514;55;20961;-66
2022/03/24 12:02:15;;;;;;;10.13;6.72;;;23.80;29.20;;;;;;2405049;55;21973;-65
2022/03/24 12:04:56;;;;;;;;;;;;;;;;;;;;;
2022/03/24 12:08:04;;;;;;;11.80;7.93;;;23.90;29.00;;;;;;2237944;56;21041;-67
2022/03/24 12:10:31;;;;;;;12.63;7.53;;;24.10;28.70;;;;;;2241675;56;21009;-67
2022/03/24 12:13:53;;;;;;;12.73;8.10;;;24.20;28.90;;;;;;2237290;56;21053;-66
2022/03/24 12:16:23;;;;;;;13.33;8.70;;;24.20;28.60;;;;;;2444166;55;21573;-67
2022/03/24 12:19:00;;;;;;;12.45;7.65;;;24.30;28.70;;;;;;2259896;56;20952;-68
2022/03/24 12:21:29;;;;;;;10.65;7.25;;;24.30;28.60;;;;;;2258767;56;21053;-69
2022/03/24 12:24:09;;;;;;;13.23;8.27;;;24.40;28.70;;;;;;2340657;55;21470;-67
2022/03/24 12:27:13;;;;;;;13.73;7.82;;;24.50;28.50;;;;;;2259425;56;20953;-67
2022/03/24 12:36:04;;;;;;;11.27;6.85;;;24.70;28.40;;;;;;2231539;57;21093;-68
2022/03/24 12:38:48;;;;;;;11.20;7.80;;;24.90;29.00;;;;;;2258543;56;20957;-75
2022/03/24 12:41:17;;;;;;;13.27;9.43;;;25.00;28.80;;;;;;2299287;55;21750;-69
2022/03/24 12:43:54;;;;;;;14.43;9.50;;;25.20;28.80;;;;;;2255999;55;20988;-67
2022/03/24 12:46:28;;;;;;;13.70;8.93;;;25.20;28.40;;;;;;2348528;55;21052;-69
2022/03/24 12:48:56;;;;;;;13.75;9.00;;;25.30;28.30;;;;;;2232837;57;22322;-67
2022/03/24 12:51:29;;;;;;;12.13;8.57;;;25.40;28.30;;;;;;2260258;56;20956;-67
2022/03/24 12:54:02;;;;;;;12.23;8.65;;;25.40;28.00;;;;;;2292492;55;20971;-67
2022/03/24 12:56:31;;;;;;;13.32;8.65;;;25.50;28.10;;;;;;2290369;55;20996;-68
2022/03/24 12:59:05;;;;;;;12.88;8.93;;;25.50;28.20;;;;;;2289849;56;20950;-66
2022/03/24 13:01:33;;;;;;;14.15;9.25;;;25.50;27.90;;;;;;2389100;55;20943;-66
2022/03/24 13:04:01;;;;;;;11.93;8.88;;;25.60;27.80;;;;;;2414877;55;20946;-67
2022/03/24 13:06:28;;;;;;;10.38;7.72;;;25.60;27.70;;;;;;2290251;56;21535;-68
2022/03/24 13:09:12;;;;;;;12.73;8.35;;;25.70;27.70;;;;;;2290038;55;21047;-67
2022/03/24 13:12:02;;;;;;;11.95;7.60;;;25.70;27.20;;;;;;2270950;55;20984;-68
2022/03/24 13:14:30;;;;;;;10.45;7.30;;;25.70;26.90;;;;;;2289960;56;20950;-67
2022/03/24 13:17:07;;;;;;;12.77;7.80;;;25.80;27.20;;;;;;2267701;55;21023;-68
2022/03/24 13:19:35;;;;;;;13.13;8.52;;;25.80;26.40;;;;;;2422112;55;20976;-68
2022/03/24 13:22:25;;;;;;;11.38;8.57;;;25.80;26.60;;;;;;2289762;55;20970;-68
2022/03/24 13:25:07;;;;;;;11.73;8.40;;;25.80;26.00;;;;;;2288542;55;20937;-67
2022/03/24 13:27:36;;;;;;;11.27;8.00;;;25.80;26.10;;;;;;2290495;56;20998;-71
2022/03/24 13:30:09;;;;;;;10.70;7.55;;;25.80;26.20;;;;;;2304056;55;21477;-66
2022/03/24 13:32:36;;;;;;;12.35;8.65;;;25.80;26.00;;;;;;2285034;55;21002;-70
2022/03/24 13:35:11;;;;;;;11.18;8.07;;;25.80;26.20;;;;;;2291004;56;21387;-68
2022/03/24 13:41:18;;;;;;;9.25;6.43;;;25.80;25.60;;;;;;2289443;55;21034;-67
2022/03/24 13:43:45;;;;;;;11.73;7.93;;;25.70;26.20;;;;;;2290678;56;20970;-70
2022/03/24 13:46:12;;;;;;;12.45;7.28;;;25.80;26.10;;;;;;2388282;55;21013;-67
2022/03/24 13:48:40;;;;;;;10.85;7.75;;;25.80;25.90;;;;;;2290111;56;20981;-69
2022/03/24 13:51:12;;;;;;;12.07;7.60;;;25.80;25.70;;;;;;2292595;55;21029;-69
2022/03/24 13:53:39;;;;;;;;;;;25.80;25.30;;;;;;2297574;55;20982;-68
2022/03/24 13:56:13;;;;;;;12.77;9.05;;;25.70;26.10;;;;;;2267211;56;20382;-69
2022/03/24 13:58:41;;;;;;;14.10;8.93;;;25.70;25.00;;;;;;2289938;56;21041;-68
2022/03/24 14:01:10;;;;;;;13.62;9.70;;;25.60;25.20;;;;;;2345999;55;21553;-69
2022/03/24 14:03:38;;;;;;;12.20;8.93;;;25.50;25.00;;;;;;2288624;55;22007;-66